WMKN/TGG METAR and TAF weather

Enter ICAO airport designator
Station Type Date Time Source
WMKN METAR 2021/03/02 16:00 UTC NOAA

WMKN 021600Z VRB01KT 9999 FEW022 26/23 Q1012


Station Type Date Time Source
WMKN Decoded METAR 2021/03/02 16:00 UTC NOAA

Station name not available
Mar 02, 2021 - 11:00 AM EST / 2021.03.02 1600 UTC
Wind: Variable at 1 MPH (1 KT):0
Visibility: greater than 7 mile(s):0
Sky conditions: mostly clear
Temperature: 78 F (26 C)
Dew Point: 73 F (23 C)
Relative Humidity: 83%
Pressure (altimeter): 29.88 in. Hg (1012 hPa)
ob: WMKN 021600Z VRB01KT 9999 FEW022 26/23 Q1012
cycle: 16

Station Type Date Time Source
WMKN TAF 2021/03/02 18:00 UTC NOAA

TAF WMKN 021700Z 0218/0318 VRB03KT 9999 FEW022
BECMG 0302/0304 06006KT FEW018
BECMG 0310/0312 VRB03KT FEW022

Example: see airport list